Wisconsin Rapids, WI (54494)

9:43 AM CDT on July 06, 2015 (GMT -0500)
South East Grand Rapids, WI | | Change Station
CLOSE
Current Station
Personal Weather Station
Location: Wisconsin Rapids, WI
Elevation: 1073 ft
Nearby Weather Stations

Elev 1073 ft 44.34 °N, 89.77 °W | Updated 35 seconds ago

Rain
Rain
68.5 °F
Feels Like 68.5 °F
N
0.0
Wind Variable Wind from NNW
Gusts 0.0 mph

Today
High -- | Low -- °F
--% Chance of Precip.
Yesterday
High -- | Low -- °F
Precip. -- in
5:21 AM 8:45 PM
Waning Gibbous, 75% visible
Pressure 29.86 in
Visibility 5.0 miles
Clouds Few 1400 ft
Overcast 2500 ft
Dew Point 68 °F
Humidity 97%
Rainfall 0.23 in
Snow Depth Not available.
UV 1 out of 12
Pollen .60 out of 12
Air Quality Not available.
Flu Activity Not available.
METAR KISW 061354Z AUTO 21005KT 5SM -RA BR FEW014 OVC025 21/19 A2988 RMK AO2 LTG DSNT E AND SE RAB1259 TSB35E50 SLP112 P0029 T02060189

More Conditions Fewer Conditions

Pressure 29.86 in
Visibility 5.0 miles
Clouds Few 1400 ft
Overcast 2500 ft
Dew Point 68 °F
Humidity 97%
Rainfall 0.23 in
Snow Depth Not available.
UV 1 out of 12
Pollen .60 out of 12
Air Quality Not available.
Flu Activity Not available.
METAR KISW 061354Z AUTO 21005KT 5SM -RA BR FEW014 OVC025 21/19 A2988 RMK AO2 LTG DSNT E AND SE RAB1259 TSB35E50 SLP112 P0029 T02060189

More Conditions Fewer Conditions

10-Day Weather Forecast

×

Almanac

Astronomy

Jul. 06, 2015 Rise Set
Actual Time
Civil Twilight
Nautical Twilight
Astronomical Twilight
Moon
Length of Visible Light
Length of Day
Tomorrow will be .
, % of the Moon is Illuminated

Today's Extremes

State Highs State Lows

Community

WunderPhotos

Upload Photos

1,835,560 photos uploaded!

WunderBlogs® & News

Nearby

Air Quality

  Air Quality AQ Index Pollutant
Not available.

Snow Depth

Station Depth Elevation

Earthquake Activity

City Distance Mag. Time & Date
Minimum magnitude displayed is 2.5.

Coastal Water Temperatures

Place Temperature

Stations

Nearby Weather Stations

Station Location Temp. Windchill Dew Point Humidity Wind Precip. Elev Updated Type